createdAt,value
2022-11-14T15:48:21.718Z,100714.31
2022-11-14T15:52:50.423Z,100717.00
2022-11-14T15:57:14.336Z,100720.78
2022-11-14T16:01:35.850Z,100710.88
2022-11-14T16:05:58.704Z,100701.91
2022-11-14T16:10:22.260Z,100688.31
2022-11-14T16:14:44.891Z,100686.69
2022-11-14T16:19:07.270Z,100692.34
2022-11-14T16:23:30.554Z,100695.06
2022-11-14T16:27:51.881Z,100691.97
2022-11-14T16:32:13.232Z,100682.19
2022-11-14T16:36:34.543Z,100695.53
2022-11-14T16:40:57.117Z,100676.38
2022-11-14T16:45:20.160Z,100681.59
2022-11-14T16:49:41.565Z,100679.22
2022-11-14T16:54:03.222Z,100676.41
2022-11-14T16:58:26.109Z,100667.19
2022-11-14T17:02:47.767Z,100654.69
2022-11-14T17:07:09.211Z,100654.22
2022-11-14T17:11:30.739Z,100643.94
2022-11-14T17:15:53.293Z,100645.00
2022-11-14T17:20:14.834Z,100646.66
2022-11-14T17:24:36.311Z,100643.94
2022-11-14T17:28:57.888Z,100643.38
2022-11-14T17:33:20.634Z,100634.41
2022-11-14T17:37:42.047Z,100635.22
2022-11-14T17:42:03.362Z,100627.91
2022-11-14T17:46:25.370Z,100632.25
2022-11-14T17:50:48.050Z,100628.97
2022-11-14T17:55:09.583Z,100629.66
2022-11-14T17:59:32.963Z,100632.13
2022-11-14T18:03:54.434Z,100620.13
2022-11-14T18:08:17.122Z,100624.00
2022-11-14T18:12:38.454Z,100620.00
2022-11-14T18:17:12.199Z,100621.41
2022-11-14T18:21:33.945Z,100621.97
2022-11-14T18:25:56.694Z,100614.22
2022-11-14T18:34:56.148Z,100611.72
2022-11-14T18:39:17.502Z,100605.22
2022-11-14T18:43:40.757Z,100609.59
2022-11-14T18:48:02.427Z,100608.28
2022-11-14T18:52:23.615Z,100604.88
2022-11-14T18:56:44.859Z,100609.22
2022-11-14T19:01:11.977Z,100610.88
2022-11-14T19:05:36.462Z,100605.69
2022-11-14T19:09:58.002Z,100596.59
2022-11-14T19:14:19.934Z,100600.63
2022-11-14T19:18:42.415Z,100590.59
2022-11-14T19:23:03.695Z,100589.78
2022-11-14T19:27:25.151Z,100589.78
2022-11-14T19:31:46.352Z,100599.81
2022-11-14T19:36:12.324Z,100609.34
2022-11-14T19:40:33.475Z,100603.69
2022-11-14T19:44:55.058Z,100605.56
2022-11-14T19:49:16.412Z,100597.66
2022-11-14T19:53:40.714Z,100607.72
2022-11-14T19:58:01.981Z,100609.34
2022-11-14T20:02:23.202Z,100610.41
2022-11-14T20:06:44.755Z,100596.84
2022-11-14T20:11:07.878Z,100595.78
2022-11-14T20:15:30.455Z,100586.34
2022-11-14T20:19:51.931Z,100589.88
2022-11-14T20:24:17.545Z,100592.25
2022-11-14T20:28:40.778Z,100583.75
2022-11-14T20:33:02.225Z,100601.94
2022-11-14T20:37:23.332Z,100593.44
2022-11-14T20:41:45.165Z,100597.78
2022-11-14T20:46:13.370Z,100608.41
2022-11-14T20:50:34.743Z,100599.22
2022-11-14T20:54:56.109Z,100598.75
2022-11-14T20:59:17.409Z,100604.78
2022-11-14T21:03:40.763Z,100592.50
2022-11-14T21:08:01.949Z,100601.81
2022-11-14T21:12:23.161Z,100598.75
2022-11-14T21:16:44.597Z,100600.03
2022-11-14T21:21:09.266Z,100597.69
2022-11-14T21:25:31.093Z,100597.78
2022-11-14T21:29:52.282Z,100600.75
2022-11-14T21:34:15.673Z,100588.38
2022-11-14T21:38:38.638Z,100599.78
2022-11-14T21:43:00.077Z,100596.81
2022-11-14T21:47:21.281Z,100596.56
2022-11-14T21:51:42.865Z,100592.16
2022-11-14T21:56:14.016Z,100582.31
2022-11-14T22:00:35.646Z,100591.41
2022-11-14T22:04:56.869Z,100590.69
2022-11-14T22:09:19.258Z,100598.03
2022-11-14T22:13:42.136Z,100586.94
2022-11-14T22:18:03.292Z,100582.63
2022-11-14T22:22:24.438Z,100584.00
2022-11-14T22:26:45.587Z,100579.34
2022-11-14T22:31:10.784Z,100588.00
2022-11-14T22:35:35.770Z,100583.28
2022-11-14T22:39:57.307Z,100576.22
2022-11-14T22:44:18.656Z,100578.47
2022-11-14T22:48:42.202Z,100568.03
2022-11-14T22:53:03.729Z,100572.50
2022-11-14T22:57:25.041Z,100574.09
2022-11-14T23:01:46.344Z,100568.78
2022-11-14T23:06:09.917Z,100571.50
2022-11-14T23:10:31.125Z,100568.13
2022-11-14T23:14:52.155Z,100572.03
2022-11-14T23:19:13.379Z,100572.25
2022-11-14T23:23:36.451Z,100568.88
2022-11-14T23:27:58.790Z,100572.41
2022-11-14T23:32:19.898Z,100569.03
2022-11-14T23:36:41.344Z,100546.06
2022-11-14T23:41:04.039Z,100552.22
2022-11-14T23:45:25.119Z,100544.91
2022-11-14T23:49:46.689Z,100550.94
2022-11-14T23:54:07.959Z,100554.59
2022-11-14T23:58:31.348Z,100555.56
